createdAt,value
2022-12-18T00:02:35.223Z,35.07
2022-12-18T00:07:57.131Z,35.63
2022-12-18T00:13:18.908Z,36.60
2022-12-18T00:18:41.831Z,35.30
2022-12-18T00:24:03.928Z,35.47
2022-12-18T00:29:25.683Z,37.27
2022-12-18T00:34:47.411Z,35.50
2022-12-18T00:40:10.052Z,36.03
2022-12-18T00:45:32.413Z,36.30
2022-12-18T00:50:54.269Z,35.53
2022-12-18T00:56:16.040Z,34.63
2022-12-18T01:01:37.938Z,34.53
2022-12-18T01:06:59.795Z,34.47
2022-12-18T01:12:21.604Z,35.90
2022-12-18T01:17:44.197Z,36.30
2022-12-18T01:23:05.962Z,36.03
2022-12-18T01:28:27.669Z,35.13
2022-12-18T01:33:50.624Z,34.83
2022-12-18T01:39:14.428Z,33.57
2022-12-18T01:44:56.741Z,34.87
2022-12-18T01:50:25.966Z,33.77
2022-12-18T01:55:51.231Z,33.20
2022-12-18T02:01:13.210Z,31.87
2022-12-18T02:06:42.099Z,31.63
2022-12-18T02:12:17.397Z,32.97
2022-12-18T02:17:51.021Z,30.67
2022-12-18T02:23:31.024Z,30.73
2022-12-18T02:29:01.702Z,30.30
2022-12-18T02:34:29.091Z,30.23
2022-12-18T02:39:54.047Z,29.30
2022-12-18T02:45:15.919Z,29.17
2022-12-18T02:50:46.445Z,30.13
2022-12-18T02:56:19.727Z,30.17
2022-12-18T03:01:50.695Z,28.27
2022-12-18T03:07:21.873Z,29.13
2022-12-18T03:12:48.730Z,29.93
2022-12-18T03:18:17.811Z,30.43
2022-12-18T03:23:48.349Z,29.60
2022-12-18T03:29:17.566Z,29.30
2022-12-18T03:34:43.104Z,29.50
2022-12-18T03:40:06.186Z,30.37
2022-12-18T03:45:35.516Z,29.13
2022-12-18T03:51:00.566Z,27.77
2022-12-18T03:56:24.836Z,25.00
2022-12-18T04:01:50.105Z,23.50
2022-12-18T04:07:13.607Z,23.73
2022-12-18T04:12:35.359Z,23.07
2022-12-18T04:17:57.115Z,22.17
2022-12-18T04:23:19.206Z,23.90
2022-12-18T04:28:40.941Z,23.27
2022-12-18T04:34:03.040Z,24.37
2022-12-18T04:39:25.450Z,23.60
2022-12-18T04:44:47.806Z,22.40
2022-12-18T04:50:09.581Z,23.23
2022-12-18T04:55:31.322Z,22.40
2022-12-18T05:00:53.018Z,22.37
2022-12-18T05:06:15.225Z,22.30
2022-12-18T05:11:37.041Z,22.57
2022-12-18T05:17:01.078Z,21.57
2022-12-18T05:22:23.064Z,21.87
2022-12-18T05:27:45.839Z,22.83
2022-12-18T05:33:07.567Z,23.23
2022-12-18T05:38:30.648Z,23.13
2022-12-18T05:43:52.374Z,24.00
2022-12-18T05:49:14.069Z,22.87
2022-12-18T05:54:35.922Z,21.93
2022-12-18T05:59:57.607Z,22.83
2022-12-18T06:05:19.483Z,22.07
2022-12-18T06:10:42.631Z,21.80
2022-12-18T06:16:08.136Z,22.90
2022-12-18T06:21:30.910Z,23.00
2022-12-18T06:26:53.669Z,22.97
2022-12-18T06:32:15.377Z,23.30
2022-12-18T06:37:37.063Z,22.37
2022-12-18T06:42:58.810Z,23.27
2022-12-18T06:48:20.874Z,22.60
2022-12-18T06:53:42.981Z,22.30
2022-12-18T06:59:05.016Z,22.87
2022-12-18T07:04:31.271Z,23.43
2022-12-18T07:09:52.963Z,22.83
2022-12-18T07:15:14.777Z,21.37
2022-12-18T07:20:37.107Z,21.50
2022-12-18T07:26:11.469Z,23.00
2022-12-18T07:31:34.466Z,22.53
2022-12-18T07:36:56.271Z,20.97
2022-12-18T07:42:32.851Z,22.93
2022-12-18T07:47:54.551Z,21.93
2022-12-18T07:53:16.258Z,23.70
2022-12-18T07:58:38.672Z,24.80
2022-12-18T08:04:00.399Z,24.37
2022-12-18T08:09:22.126Z,24.13
2022-12-18T08:14:43.840Z,24.17
2022-12-18T08:20:05.890Z,24.63
2022-12-18T08:25:28.770Z,24.37
2022-12-18T08:30:53.365Z,22.40
2022-12-18T08:36:15.087Z,25.60
2022-12-18T08:41:36.776Z,25.50
2022-12-18T08:46:58.556Z,25.67
2022-12-18T08:52:20.284Z,25.23
2022-12-18T08:57:42.003Z,26.70
2022-12-18T09:03:03.898Z,25.90
2022-12-18T09:08:25.925Z,27.87
2022-12-18T09:13:47.847Z,26.73
2022-12-18T09:19:10.690Z,28.17
2022-12-18T09:24:32.413Z,27.17
2022-12-18T09:29:54.107Z,26.87
2022-12-18T09:35:15.910Z,26.30
2022-12-18T09:40:43.749Z,26.33
2022-12-18T09:46:12.994Z,28.10
2022-12-18T09:51:45.563Z,26.87
2022-12-18T09:57:07.290Z,25.93
2022-12-18T10:02:32.038Z,26.97
2022-12-18T10:08:06.675Z,26.50
2022-12-18T10:13:47.710Z,28.53
2022-12-18T10:19:25.647Z,28.70
2022-12-18T10:25:05.616Z,27.53
2022-12-18T10:30:28.695Z,27.90
2022-12-18T10:35:53.731Z,27.70
2022-12-18T10:41:18.224Z,28.43
2022-12-18T10:46:40.123Z,30.03
2022-12-18T10:52:22.342Z,30.00
2022-12-18T10:57:44.311Z,29.13
2022-12-18T11:03:37.073Z,29.87
2022-12-18T11:09:19.683Z,29.10
2022-12-18T11:14:48.872Z,29.33
2022-12-18T11:20:33.807Z,29.70
2022-12-18T11:26:02.606Z,29.87
2022-12-18T11:31:28.731Z,26.77
2022-12-18T11:36:50.904Z,25.40
2022-12-18T11:42:45.594Z,25.37
2022-12-18T11:48:23.672Z,24.47
2022-12-18T11:53:45.389Z,23.90
2022-12-18T11:59:17.553Z,23.00
2022-12-18T12:05:05.164Z,21.97
2022-12-18T12:10:52.524Z,23.37
2022-12-18T12:16:22.567Z,22.53
2022-12-18T12:21:54.574Z,23.23
2022-12-18T12:27:31.863Z,23.83
2022-12-18T12:33:25.966Z,22.87
2022-12-18T12:38:52.858Z,23.43
2022-12-18T12:44:21.357Z,23.40
2022-12-18T12:49:48.403Z,23.30
2022-12-18T12:55:22.389Z,23.37
2022-12-18T13:00:54.320Z,24.53
2022-12-18T13:06:33.905Z,22.67
2022-12-18T13:12:22.510Z,24.30
2022-12-18T13:17:44.308Z,23.27
2022-12-18T13:23:24.320Z,24.43
2022-12-18T13:28:49.169Z,22.40
2022-12-18T13:40:00.083Z,24.07
2022-12-18T13:45:41.025Z,24.27
2022-12-18T13:51:17.595Z,26.53
2022-12-18T13:56:44.903Z,27.50
2022-12-18T14:02:15.434Z,27.87
2022-12-18T14:07:43.872Z,27.13
2022-12-18T14:13:14.962Z,26.70
2022-12-18T14:19:08.664Z,28.63
2022-12-18T14:24:37.167Z,26.13
2022-12-18T14:29:59.152Z,29.57
2022-12-18T14:35:21.002Z,29.27
2022-12-18T14:40:43.887Z,29.33
2022-12-18T14:46:20.543Z,29.47
2022-12-18T14:51:49.543Z,29.83
2022-12-18T14:57:25.853Z,28.27
2022-12-18T15:02:56.711Z,28.27
2022-12-18T15:08:41.037Z,28.10
2022-12-18T15:14:30.904Z,30.13
2022-12-18T15:20:01.316Z,30.37
2022-12-18T15:25:34.704Z,27.90
2022-12-18T15:31:25.752Z,29.67
2022-12-18T15:36:47.859Z,28.00
2022-12-18T15:42:29.834Z,29.30
2022-12-18T15:47:51.602Z,29.80
2022-12-18T15:53:13.375Z,29.53
2022-12-18T15:58:35.186Z,29.90
2022-12-18T16:03:57.464Z,30.23
2022-12-18T16:09:24.488Z,29.13
2022-12-18T16:14:48.340Z,30.03
2022-12-18T16:20:15.890Z,30.03
2022-12-18T16:25:37.815Z,32.93
2022-12-18T16:31:00.169Z,31.80
2022-12-18T16:36:21.875Z,30.47
2022-12-18T16:41:44.029Z,30.50
2022-12-18T16:47:05.883Z,29.73
2022-12-18T16:52:30.313Z,29.50
2022-12-18T16:57:52.012Z,29.37
2022-12-18T17:03:14.030Z,28.27
2022-12-18T17:08:36.013Z,32.10
2022-12-18T17:13:58.160Z,30.73
2022-12-18T17:19:21.722Z,30.77
2022-12-18T17:24:43.521Z,29.47
2022-12-18T17:30:05.880Z,31.03
2022-12-18T17:35:27.629Z,31.00
2022-12-18T17:40:49.347Z,31.03
2022-12-18T17:46:14.953Z,30.27
2022-12-18T17:51:36.780Z,30.40
2022-12-18T17:56:58.474Z,28.67
2022-12-18T18:02:20.373Z,27.60
2022-12-18T18:07:43.078Z,29.23
2022-12-18T18:13:24.563Z,28.57
2022-12-18T18:18:46.245Z,28.63
2022-12-18T18:24:09.433Z,28.73
2022-12-18T18:29:31.243Z,29.03
2022-12-18T18:34:53.034Z,27.00
2022-12-18T18:40:15.115Z,26.63
2022-12-18T18:45:36.934Z,29.20
2022-12-18T18:50:59.386Z,27.23
2022-12-18T19:02:05.335Z,25.87
2022-12-18T19:07:30.251Z,24.97
2022-12-18T19:13:11.369Z,25.07
2022-12-18T19:18:33.890Z,26.97
2022-12-18T19:23:55.684Z,27.10
2022-12-18T19:29:17.865Z,26.33
2022-12-18T19:34:39.698Z,27.37
2022-12-18T19:40:02.491Z,26.27
2022-12-18T19:45:30.918Z,27.03
2022-12-18T19:50:52.801Z,28.90
2022-12-18T19:56:17.870Z,27.57
2022-12-18T20:01:40.426Z,26.90
2022-12-18T20:07:02.470Z,28.20
2022-12-18T20:12:24.394Z,27.90
2022-12-18T20:17:46.235Z,29.37
2022-12-18T20:23:08.280Z,27.80
2022-12-18T20:28:30.346Z,28.17
2022-12-18T20:33:54.510Z,26.80
2022-12-18T20:39:19.428Z,27.00
2022-12-18T20:44:42.025Z,27.00
2022-12-18T20:50:04.154Z,26.50
2022-12-18T20:55:26.069Z,26.67
2022-12-18T21:00:47.820Z,26.10
2022-12-18T21:06:10.601Z,26.97
2022-12-18T21:11:51.906Z,27.70
2022-12-18T21:17:14.123Z,30.67
2022-12-18T21:22:36.580Z,29.57
2022-12-18T21:27:58.307Z,27.77
2022-12-18T21:33:20.047Z,27.47
2022-12-18T21:38:42.100Z,29.77
2022-12-18T21:44:07.037Z,28.70
2022-12-18T21:49:29.012Z,28.63
2022-12-18T21:54:50.729Z,29.40
2022-12-18T22:00:19.344Z,28.20
2022-12-18T22:05:41.460Z,29.57
2022-12-18T22:11:03.382Z,28.43
2022-12-18T22:16:25.200Z,27.50
2022-12-18T22:21:48.716Z,28.20
2022-12-18T22:27:10.507Z,27.87
2022-12-18T22:32:34.895Z,28.17
2022-12-18T22:37:59.110Z,29.13
2022-12-18T22:43:20.859Z,29.20
2022-12-18T22:48:43.233Z,29.37
2022-12-18T22:54:04.995Z,29.50
2022-12-18T22:59:26.873Z,28.87
2022-12-18T23:04:48.612Z,30.30
2022-12-18T23:10:10.401Z,28.23
2022-12-18T23:15:32.456Z,29.30
2022-12-18T23:20:54.125Z,28.07
2022-12-18T23:26:18.928Z,29.27
2022-12-18T23:31:40.794Z,29.80
2022-12-18T23:37:03.653Z,28.07
2022-12-18T23:42:25.548Z,28.47
2022-12-18T23:47:51.050Z,27.80
2022-12-18T23:53:13.589Z,29.53
2022-12-18T23:58:36.233Z,27.30
